Time;durP1;ratioP1;P1;durP2;ratioP2;P2;SDS_P1;SDS_P2;PMS_P1;PMS_P2;Temp;Humidity;BMP_temperature;BMP_pressure;BME280_temperature;BME280_humidity;BME280_pressure;Samples;Min_cycle;Max_cycle;Signal;HPM_P1;HPM_P2
2021/07/23 00:01:55;;;;;;;9.70;7.53;;;;;;;;;;4992447;28;20387;-49
2021/07/23 00:04:21;;;;;;;9.83;7.60;;;;;;;;;;4992431;28;20441;-49
2021/07/23 00:06:48;;;;;;;8.23;7.13;;;;;;;;;;4992653;28;20413;-49
2021/07/23 00:09:14;;;;;;;8.57;7.43;;;;;;;;;;4992425;28;20407;-49
2021/07/23 00:11:40;;;;;;;8.60;7.70;;;;;;;;;;4992036;28;20422;-49
2021/07/23 00:14:06;;;;;;;7.63;6.83;;;;;;;;;;4992225;28;20450;-50
2021/07/23 00:16:32;;;;;;;11.30;6.83;;;;;;;;;;4992332;28;20414;-50
2021/07/23 00:18:58;;;;;;;8.70;7.80;;;;;;;;;;4992165;28;20399;-49
2021/07/23 00:21:24;;;;;;;9.67;7.20;;;;;;;;;;4992079;28;20413;-49
2021/07/23 00:23:50;;;;;;;12.33;7.70;;;;;;;;;;4992086;28;20404;-49
2021/07/23 00:26:19;;;;;;;10.23;7.80;;;;;;;;;;4991847;28;21063;-49
2021/07/23 00:28:45;;;;;;;10.23;7.70;;;;;;;;;;4992030;28;20757;-49
2021/07/23 00:31:11;;;;;;;10.70;7.63;;;;;;;;;;4991788;28;20431;-48
2021/07/23 00:33:37;;;;;;;9.37;7.80;;;;;;;;;;4991871;28;20399;-49
2021/07/23 00:36:03;;;;;;;13.10;7.80;;;;;;;;;;4991737;28;20447;-49
2021/07/23 00:38:29;;;;;;;9.33;6.83;;;;;;;;;;4991832;28;20378;-49
2021/07/23 00:40:55;;;;;;;10.73;7.73;;;;;;;;;;4991607;28;20483;-49
2021/07/23 00:43:21;;;;;;;9.33;7.87;;;;;;;;;;4991764;28;20378;-49
2021/07/23 00:45:47;;;;;;;9.67;7.40;;;;;;;;;;4991567;28;20456;-50
2021/07/23 00:48:14;;;;;;;8.03;7.23;;;;;;;;;;4991756;28;20409;-49
2021/07/23 00:50:41;;;;;;;10.10;6.97;;;;;;;;;;4991230;28;20443;-49
2021/07/23 00:53:07;;;;;;;12.47;7.40;;;;;;;;;;4991462;28;20436;-49
2021/07/23 00:55:33;;;;;;;10.20;7.67;;;;;;;;;;4991486;28;20391;-48
2021/07/23 00:58:00;;;;;;;7.70;6.60;;;;;;;;;;4991703;28;20458;-49
2021/07/23 01:00:26;;;;;;;10.40;7.27;;;;;;;;;;4991181;28;20489;-49
2021/07/23 01:02:53;;;;;;;8.47;7.27;;;;;;;;;;4990775;28;20379;-49
2021/07/23 01:05:19;;;;;;;8.00;7.30;;;;;;;;;;4990533;28;20433;-49
2021/07/23 01:07:46;;;;;;;8.77;6.73;;;;;;;;;;4991233;28;20412;-49
2021/07/23 01:10:12;;;;;;;9.40;7.67;;;;;;;;;;4991036;28;20402;-48
2021/07/23 01:12:38;;;;;;;7.67;6.87;;;;;;;;;;4991184;28;20890;-48
2021/07/23 01:15:05;;;;;;;9.53;7.70;;;;;;;;;;4991173;28;20379;-49
2021/07/23 01:17:31;;;;;;;8.57;7.67;;;;;;;;;;4991423;28;20407;-49
2021/07/23 01:20:10;;;;;;;8.83;7.57;;;;;;;;;;4991242;28;20428;-49
2021/07/23 01:22:39;;;;;;;10.80;7.40;;;;;;;;;;4991206;28;20446;-49
2021/07/23 01:25:05;;;;;;;13.83;8.50;;;;;;;;;;4991188;28;20430;-49
2021/07/23 01:27:35;;;;;;;11.50;7.73;;;;;;;;;;4991080;28;20404;-49
2021/07/23 01:30:08;;;;;;;10.80;7.70;;;;;;;;;;4991154;28;20428;-50
2021/07/23 01:32:34;;;;;;;13.00;8.20;;;;;;;;;;4990760;28;20427;-49
2021/07/23 01:35:00;;;;;;;9.93;7.43;;;;;;;;;;4991110;28;20752;-49
2021/07/23 01:37:26;;;;;;;7.90;7.10;;;;;;;;;;4990988;28;20729;-49
2021/07/23 01:39:54;;;;;;;10.80;7.80;;;;;;;;;;4990979;28;20871;-48
2021/07/23 01:42:20;;;;;;;10.83;7.10;;;;;;;;;;4990735;28;20415;-48
2021/07/23 01:44:46;;;;;;;8.70;7.47;;;;;;;;;;4991027;28;20476;-49
2021/07/23 01:47:12;;;;;;;9.03;6.90;;;;;;;;;;4990996;28;20376;-49
2021/07/23 01:49:38;;;;;;;10.73;8.10;;;;;;;;;;4990919;28;20453;-49
2021/07/23 01:52:04;;;;;;;11.70;8.20;;;;;;;;;;4990921;28;20490;-49
2021/07/23 01:54:30;;;;;;;8.93;7.10;;;;;;;;;;4991127;28;20419;-49
2021/07/23 01:56:56;;;;;;;11.93;8.20;;;;;;;;;;4991055;28;20387;-49
2021/07/23 01:59:22;;;;;;;12.03;7.83;;;;;;;;;;4991217;28;20760;-49
2021/07/23 02:01:48;;;;;;;13.70;7.43;;;;;;;;;;4990686;28;20450;-49
2021/07/23 02:04:14;;;;;;;8.67;7.50;;;;;;;;;;4990927;28;20868;-49
2021/07/23 02:06:40;;;;;;;8.73;7.70;;;;;;;;;;4991081;28;20876;-49
2021/07/23 02:09:06;;;;;;;60.07;33.30;;;;;;;;;;4991182;28;20760;-49
2021/07/23 02:11:32;;;;;;;16.33;8.57;;;;;;;;;;4990705;28;20956;-49
2021/07/23 02:14:00;;;;;;;11.63;8.13;;;;;;;;;;4990901;28;20483;-49
2021/07/23 02:16:26;;;;;;;12.10;7.97;;;;;;;;;;4992004;28;20768;-48
2021/07/23 02:18:52;;;;;;;13.50;8.67;;;;;;;;;;4994558;28;20388;-49
2021/07/23 02:21:18;;;;;;;10.90;9.40;;;;;;;;;;4994240;28;20402;-49
2021/07/23 02:23:44;;;;;;;130.80;118.73;;;;;;;;;;4994182;28;20499;-49
2021/07/23 02:26:17;;;;;;;11.43;9.00;;;;;;;;;;4994226;28;20487;-48
2021/07/23 02:28:43;;;;;;;13.03;8.80;;;;;;;;;;4994141;28;20438;-49
2021/07/23 02:31:09;;;;;;;14.77;8.77;;;;;;;;;;4993924;28;20455;-49
2021/07/23 02:33:35;;;;;;;10.53;9.37;;;;;;;;;;4994039;28;20782;-49
2021/07/23 02:36:01;;;;;;;9.50;8.27;;;;;;;;;;4994174;28;20919;-49
2021/07/23 02:38:26;;;;;;;12.23;8.57;;;;;;;;;;4994139;28;20782;-49
2021/07/23 02:40:54;;;;;;;60.27;35.00;;;;;;;;;;4993742;28;20792;-49
2021/07/23 02:43:21;;;;;;;11.43;8.70;;;;;;;;;;4993829;28;20396;-49
2021/07/23 02:45:47;;;;;;;8.67;7.77;;;;;;;;;;4993791;28;20458;-49
2021/07/23 02:48:12;;;;;;;11.80;9.10;;;;;;;;;;4993826;28;20496;-49
2021/07/23 02:50:39;;;;;;;1059.80;193.70;;;;;;;;;;4993488;28;20924;-49
2021/07/23 02:53:05;;;;;;;12.50;9.70;;;;;;;;;;4993626;28;20369;-49
2021/07/23 02:55:30;;;;;;;31.77;15.03;;;;;;;;;;4993747;28;20409;-49
2021/07/23 02:57:57;;;;;;;10.47;8.63;;;;;;;;;;4993656;28;20374;-49
2021/07/23 03:00:23;;;;;;;21.80;13.30;;;;;;;;;;4993347;28;20427;-49
2021/07/23 03:02:49;;;;;;;11.77;8.73;;;;;;;;;;4993512;28;20754;-49
2021/07/23 03:05:15;;;;;;;9.80;8.80;;;;;;;;;;4993540;28;20460;-49
2021/07/23 03:07:41;;;;;;;15.43;9.20;;;;;;;;;;4993463;28;20892;-49
2021/07/23 03:10:07;;;;;;;11.90;9.20;;;;;;;;;;4993475;28;20415;-50
2021/07/23 03:12:34;;;;;;;24.83;11.53;;;;;;;;;;4993051;28;20504;-49
2021/07/23 03:15:00;;;;;;;13.73;9.67;;;;;;;;;;4993457;28;20411;-49
2021/07/23 03:17:26;;;;;;;11.63;9.73;;;;;;;;;;4993564;28;20376;-49
2021/07/23 03:19:52;;;;;;;12.73;8.50;;;;;;;;;;4993467;28;20493;-49
2021/07/23 03:22:18;;;;;;;15.03;9.83;;;;;;;;;;4993201;28;20439;-49
2021/07/23 03:24:44;;;;;;;11.43;9.30;;;;;;;;;;4993127;28;20449;-49
2021/07/23 03:27:10;;;;;;;15.70;9.80;;;;;;;;;;4993195;28;20375;-49
2021/07/23 03:29:37;;;;;;;12.70;9.70;;;;;;;;;;4993152;28;20973;-49
2021/07/23 03:32:03;;;;;;;12.10;9.20;;;;;;;;;;4992972;28;20462;-49
2021/07/23 03:34:29;;;;;;;17.03;12.93;;;;;;;;;;4992971;28;20407;-48
2021/07/23 03:36:56;;;;;;;11.03;9.30;;;;;;;;;;4993078;28;20505;-49
2021/07/23 03:39:21;;;;;;;11.73;8.97;;;;;;;;;;4992845;28;20776;-49
2021/07/23 03:41:47;;;;;;;13.00;9.10;;;;;;;;;;4992546;28;20465;-48
2021/07/23 03:44:13;;;;;;;12.53;8.20;;;;;;;;;;4992897;28;20466;-48
2021/07/23 03:46:39;;;;;;;13.63;10.10;;;;;;;;;;4992937;28;20374;-49
2021/07/23 03:49:05;;;;;;;18.93;10.70;;;;;;;;;;4992947;28;20406;-50
2021/07/23 03:51:31;;;;;;;14.67;10.20;;;;;;;;;;4992475;28;20816;-49
2021/07/23 03:53:57;;;;;;;18.90;11.13;;;;;;;;;;4992482;28;20398;-49
2021/07/23 03:56:23;;;;;;;26.10;10.30;;;;;;;;;;4993200;28;20411;-49
2021/07/23 03:58:52;;;;;;;13.23;9.83;;;;;;;;;;4992436;28;20505;-49
2021/07/23 04:01:18;;;;;;;15.33;11.13;;;;;;;;;;4992309;28;20437;-49
2021/07/23 04:03:44;;;;;;;12.33;10.03;;;;;;;;;;4992288;28;20417;-48
2021/07/23 04:06:10;;;;;;;14.00;10.37;;;;;;;;;;4992460;28;20905;-49
2021/07/23 04:08:36;;;;;;;12.47;9.20;;;;;;;;;;4992413;28;20797;-49
2021/07/23 04:11:02;;;;;;;15.50;11.57;;;;;;;;;;4992521;28;20508;-49
2021/07/23 04:13:28;;;;;;;15.07;10.40;;;;;;;;;;4992239;28;20858;-49
2021/07/23 04:15:54;;;;;;;11.93;9.63;;;;;;;;;;4992333;28;20372;-48
2021/07/23 04:18:20;;;;;;;15.70;10.87;;;;;;;;;;4992216;28;20774;-48
2021/07/23 04:20:46;;;;;;;16.93;10.37;;;;;;;;;;4991805;28;20843;-49
2021/07/23 04:23:12;;;;;;;14.73;10.30;;;;;;;;;;4992032;28;20405;-49
2021/07/23 04:25:38;;;;;;;14.33;10.37;;;;;;;;;;4991936;28;20455;-49
2021/07/23 04:28:04;;;;;;;18.50;11.13;;;;;;;;;;4992012;28;20822;-49
2021/07/23 04:30:30;;;;;;;13.17;11.30;;;;;;;;;;4991676;28;20419;-48
2021/07/23 04:32:56;;;;;;;14.53;9.70;;;;;;;;;;4991957;28;20398;-49
2021/07/23 04:35:22;;;;;;;16.50;10.23;;;;;;;;;;4991856;28;20396;-48
2021/07/23 04:37:48;;;;;;;14.07;11.30;;;;;;;;;;4991845;28;20373;-48
2021/07/23 04:40:14;;;;;;;16.20;10.67;;;;;;;;;;4990857;28;20427;-48
2021/07/23 04:42:40;;;;;;;13.50;10.90;;;;;;;;;;4991871;28;20417;-49
2021/07/23 04:45:06;;;;;;;13.17;11.03;;;;;;;;;;4991688;28;20788;-49
2021/07/23 04:47:33;;;;;;;18.10;11.70;;;;;;;;;;4991866;28;20408;-50
2021/07/23 04:50:00;;;;;;;17.33;11.63;;;;;;;;;;4991633;28;20847;-48
2021/07/23 04:52:26;;;;;;;20.47;11.20;;;;;;;;;;4991676;28;20928;-49
2021/07/23 04:54:52;;;;;;;22.80;12.57;;;;;;;;;;4991668;28;20403;-49
2021/07/23 04:57:25;;;;;;;11.70;10.50;;;;;;;;;;4992018;28;20490;-49
2021/07/23 04:59:51;;;;;;;25.10;11.00;;;;;;;;;;4991677;28;20456;-49
2021/07/23 05:02:17;;;;;;;17.10;11.90;;;;;;;;;;4991317;28;20956;-49
2021/07/23 05:04:43;;;;;;;17.00;11.13;;;;;;;;;;4991665;28;20956;-49
2021/07/23 05:07:09;;;;;;;18.73;11.17;;;;;;;;;;4991453;28;20403;-49
2021/07/23 05:09:35;;;;;;;14.27;11.50;;;;;;;;;;4991333;28;20489;-50
2021/07/23 05:12:01;;;;;;;16.30;11.23;;;;;;;;;;4991018;28;20401;-49
2021/07/23 05:14:31;;;;;;;22.23;11.47;;;;;;;;;;4991458;28;20404;-49
2021/07/23 05:16:56;;;;;;;15.03;12.00;;;;;;;;;;4991508;28;20412;-48
2021/07/23 05:19:22;;;;;;;15.33;11.70;;;;;;;;;;4991348;28;20407;-48
2021/07/23 05:21:48;;;;;;;18.23;11.27;;;;;;;;;;4990780;28;20409;-49
2021/07/23 05:24:14;;;;;;;14.90;11.10;;;;;;;;;;4991600;28;20775;-49
2021/07/23 05:26:40;;;;;;;14.00;11.37;;;;;;;;;;4991070;28;20407;-49
2021/07/23 05:29:09;;;;;;;14.53;11.30;;;;;;;;;;4991199;28;20444;-49
2021/07/23 05:31:36;;;;;;;13.13;11.17;;;;;;;;;;4991145;28;20437;-49
2021/07/23 05:34:02;;;;;;;17.03;10.67;;;;;;;;;;4991181;28;20408;-49
2021/07/23 05:36:28;;;;;;;15.93;11.50;;;;;;;;;;4990941;28;20502;-48
2021/07/23 05:38:54;;;;;;;19.63;14.10;;;;;;;;;;4991169;28;20382;-49
2021/07/23 05:41:20;;;;;;;19.83;12.17;;;;;;;;;;4991037;28;20474;-49
2021/07/23 05:43:47;;;;;;;21.23;13.30;;;;;;;;;;4991073;28;20386;-49
2021/07/23 05:46:13;;;;;;;19.27;12.17;;;;;;;;;;4990898;28;20804;-49
2021/07/23 05:48:39;;;;;;;22.83;13.13;;;;;;;;;;4990995;28;20451;-49
2021/07/23 05:51:06;;;;;;;18.10;12.13;;;;;;;;;;4990800;28;20425;-49
2021/07/23 05:53:32;;;;;;;16.20;11.80;;;;;;;;;;4994866;28;20404;-49
2021/07/23 05:55:58;;;;;;;18.73;11.90;;;;;;;;;;4994960;28;20414;-49
2021/07/23 05:58:27;;;;;;;14.43;10.97;;;;;;;;;;4995061;28;20374;-49
2021/07/23 06:00:54;;;;;;;19.00;13.10;;;;;;;;;;4994461;28;20421;-50
2021/07/23 06:03:20;;;;;;;21.50;12.70;;;;;;;;;;4994736;28;20750;-49
2021/07/23 06:05:46;;;;;;;17.23;12.67;;;;;;;;;;4994490;28;20452;-49
2021/07/23 06:08:12;;;;;;;19.33;12.43;;;;;;;;;;4994736;28;20376;-49
2021/07/23 06:10:38;;;;;;;21.70;12.43;;;;;;;;;;4994413;28;20469;-49
2021/07/23 06:13:04;;;;;;;22.90;13.07;;;;;;;;;;4994590;28;20383;-49
2021/07/23 06:15:30;;;;;;;23.00;13.00;;;;;;;;;;4994714;28;20379;-49
2021/07/23 06:17:56;;;;;;;18.13;11.53;;;;;;;;;;4994427;28;20923;-49
2021/07/23 06:20:22;;;;;;;17.03;11.07;;;;;;;;;;4994197;28;20407;-49
2021/07/23 06:22:48;;;;;;;12.77;10.83;;;;;;;;;;4994467;28;20408;-49
2021/07/23 06:25:14;;;;;;;16.63;11.27;;;;;;;;;;4994365;28;20459;-49
2021/07/23 06:27:40;;;;;;;17.30;11.40;;;;;;;;;;4994319;28;20913;-49
2021/07/23 06:30:06;;;;;;;17.50;11.80;;;;;;;;;;4994380;28;20778;-49
2021/07/23 06:32:33;;;;;;;15.13;12.10;;;;;;;;;;4993942;28;20393;-49
2021/07/23 06:34:59;;;;;;;14.03;10.90;;;;;;;;;;4994275;28;20412;-49
2021/07/23 06:37:26;;;;;;;22.33;12.63;;;;;;;;;;4994420;28;20384;-49
2021/07/23 06:39:52;;;;;;;14.80;11.27;;;;;;;;;;4994263;28;20426;-48
2021/07/23 06:42:20;;;;;;;25.27;11.80;;;;;;;;;;4993813;28;20753;-48
2021/07/23 06:44:47;;;;;;;19.73;12.13;;;;;;;;;;4994054;28;20436;-49
2021/07/23 06:47:12;;;;;;;14.50;9.93;;;;;;;;;;4993934;28;20780;-49
2021/07/23 06:49:38;;;;;;;12.60;11.30;;;;;;;;;;4993710;28;20406;-49
2021/07/23 06:52:05;;;;;;;19.97;11.37;;;;;;;;;;4993552;28;20387;-49
2021/07/23 06:54:30;;;;;;;18.93;12.20;;;;;;;;;;4994132;28;20405;-49
2021/07/23 06:56:57;;;;;;;18.60;11.30;;;;;;;;;;4993778;28;20409;-49
2021/07/23 06:59:23;;;;;;;13.23;11.13;;;;;;;;;;4993845;28;20413;-49
2021/07/23 07:01:49;;;;;;;16.43;11.83;;;;;;;;;;4992807;28;20427;-49
2021/07/23 07:04:15;;;;;;;20.40;11.40;;;;;;;;;;4993366;28;20387;-49
2021/07/23 07:06:41;;;;;;;16.20;11.00;;;;;;;;;;4993671;28;20420;-49
2021/07/23 07:09:07;;;;;;;17.47;12.90;;;;;;;;;;4993452;28;20399;-48
2021/07/23 07:11:33;;;;;;;14.27;11.13;;;;;;;;;;4993612;28;20418;-49
2021/07/23 07:13:58;;;;;;;16.33;11.70;;;;;;;;;;4993266;28;20398;-49
2021/07/23 07:16:24;;;;;;;13.40;10.67;;;;;;;;;;4993380;28;20379;-48
2021/07/23 07:18:50;;;;;;;13.40;11.67;;;;;;;;;;4993256;28;20966;-49
2021/07/23 07:21:16;;;;;;;13.73;9.53;;;;;;;;;;4993318;28;20964;-50
2021/07/23 07:23:43;;;;;;;12.83;11.30;;;;;;;;;;4993302;28;20733;-49
2021/07/23 07:26:09;;;;;;;14.53;10.07;;;;;;;;;;4993128;28;20964;-49
2021/07/23 07:28:35;;;;;;;16.37;9.77;;;;;;;;;;4993132;28;20371;-49
2021/07/23 07:31:01;;;;;;;15.43;12.53;;;;;;;;;;4992884;28;20761;-49
2021/07/23 07:33:30;;;;;;;23.40;11.37;;;;;;;;;;4992864;28;20400;-49
2021/07/23 07:35:57;;;;;;;12.23;10.00;;;;;;;;;;4993415;28;20404;-49
2021/07/23 07:38:23;;;;;;;13.20;10.57;;;;;;;;;;4992829;28;20432;-48
2021/07/23 07:40:49;;;;;;;12.87;10.10;;;;;;;;;;4992892;28;20898;-49
2021/07/23 07:43:15;;;;;;;16.00;10.27;;;;;;;;;;4992878;28;20405;-49
2021/07/23 07:45:41;;;;;;;14.93;9.43;;;;;;;;;;4992824;28;20458;-49
2021/07/23 07:48:07;;;;;;;22.50;16.90;;;;;;;;;;4992738;28;20408;-49
2021/07/23 07:50:33;;;;;;;12.50;9.00;;;;;;;;;;4992471;28;20450;-49
2021/07/23 07:52:59;;;;;;;14.10;9.10;;;;;;;;;;4992681;28;20404;-49
2021/07/23 07:55:26;;;;;;;8.73;7.73;;;;;;;;;;4992742;28;20424;-48
2021/07/23 07:57:52;;;;;;;10.63;7.53;;;;;;;;;;4992719;28;20408;-49
2021/07/23 08:00:18;;;;;;;11.60;8.20;;;;;;;;;;4992080;28;20431;-50
2021/07/23 08:02:46;;;;;;;9.83;8.00;;;;;;;;;;4992473;28;20449;-49
2021/07/23 08:05:14;;;;;;;11.97;7.23;;;;;;;;;;4991767;28;20466;-49
2021/07/23 08:07:40;;;;;;;8.33;7.40;;;;;;;;;;4992273;28;20842;-49
2021/07/23 08:10:10;;;;;;;8.40;6.87;;;;;;;;;;4992319;28;20507;-50
2021/07/23 08:12:36;;;;;;;23.60;7.83;;;;;;;;;;4992206;28;20427;-49
2021/07/23 08:15:02;;;;;;;11.53;7.53;;;;;;;;;;4991340;28;20834;-49
2021/07/23 08:17:28;;;;;;;11.00;8.00;;;;;;;;;;4992313;28;20892;-50
2021/07/23 08:19:57;;;;;;;17.37;7.03;;;;;;;;;;4991647;28;20431;-50
2021/07/23 08:22:23;;;;;;;6.43;5.73;;;;;;;;;;4990731;28;20404;-50
2021/07/23 08:24:49;;;;;;;8.63;5.93;;;;;;;;;;4992389;28;20455;-50
2021/07/23 08:27:18;;;;;;;18.60;5.40;;;;;;;;;;4992196;28;20419;-51
2021/07/23 08:29:44;;;;;;;11.83;4.93;;;;;;;;;;4992307;28;20393;-52
2021/07/23 08:32:10;;;;;;;5.50;5.00;;;;;;;;;;4991800;28;20411;-52
2021/07/23 08:34:36;;;;;;;5.27;4.77;;;;;;;;;;4991893;28;20169;-51
2021/07/23 08:37:02;;;;;;;5.30;4.53;;;;;;;;;;4992016;28;20408;-52
2021/07/23 08:39:28;;;;;;;7.43;5.03;;;;;;;;;;4991759;28;20412;-50
2021/07/23 08:41:55;;;;;;;5.43;4.80;;;;;;;;;;4991524;28;20901;-51
2021/07/23 08:44:22;;;;;;;10.30;4.10;;;;;;;;;;4991590;28;20423;-51
2021/07/23 08:46:49;;;;;;;3.73;3.53;;;;;;;;;;4991895;28;20404;-52
2021/07/23 08:49:15;;;;;;;5.77;4.50;;;;;;;;;;4991625;28;20442;-52
2021/07/23 08:51:41;;;;;;;5.90;5.40;;;;;;;;;;4991307;28;20451;-51
2021/07/23 08:54:07;;;;;;;8.33;5.67;;;;;;;;;;4991620;28;20408;-52
2021/07/23 08:56:33;;;;;;;5.33;4.93;;;;;;;;;;4991403;28;20412;-53
2021/07/23 08:58:59;;;;;;;9.20;5.63;;;;;;;;;;4991693;28;20431;-52
2021/07/23 09:01:25;;;;;;;8.43;5.20;;;;;;;;;;4991095;28;20424;-51
2021/07/23 09:03:51;;;;;;;9.90;6.37;;;;;;;;;;4991717;28;20416;-51
2021/07/23 09:06:22;;;;;;;5.17;4.67;;;;;;;;;;4991267;28;20521;-52
2021/07/23 09:08:53;;;;;;;8.60;5.03;;;;;;;;;;4991426;28;20614;-52
2021/07/23 09:11:30;;;;;;;5.20;4.63;;;;;;;;;;4990957;28;20996;-52
2021/07/23 09:14:12;;;;;;;4.83;4.40;;;;;;;;;;4991389;28;20406;-52
2021/07/23 09:16:38;;;;;;;3.80;3.50;;;;;;;;;;4991329;28;20455;-52
2021/07/23 09:19:05;;;;;;;9.70;4.57;;;;;;;;;;4991839;28;20404;-51
2021/07/23 09:21:33;;;;;;;7.87;4.87;;;;;;;;;;4990916;28;20454;-51
2021/07/23 09:23:59;;;;;;;5.93;5.43;;;;;;;;;;4991287;28;20419;-51
2021/07/23 09:26:27;;;;;;;5.40;4.70;;;;;;;;;;4990859;28;20455;-51
2021/07/23 09:28:53;;;;;;;5.33;3.60;;;;;;;;;;4991180;28;20165;-52
2021/07/23 09:31:23;;;;;;;5.80;3.60;;;;;;;;;;4990764;28;20435;-52
2021/07/23 09:33:52;;;;;;;5.07;4.60;;;;;;;;;;4991193;28;20407;-51
2021/07/23 09:36:18;;;;;;;6.20;5.57;;;;;;;;;;4991056;28;20494;-52
2021/07/23 09:38:45;;;;;;;4.20;3.47;;;;;;;;;;4991381;28;20949;-52
2021/07/23 09:41:12;;;;;;;5.20;4.70;;;;;;;;;;4990926;28;20287;-51
2021/07/23 09:43:42;;;;;;;6.57;5.50;;;;;;;;;;4991047;28;20415;-50
2021/07/23 09:46:17;;;;;;;6.77;5.43;;;;;;;;;;4990997;28;20460;-51
2021/07/23 09:48:44;;;;;;;5.80;4.63;;;;;;;;;;4991122;28;20400;-52
2021/07/23 09:51:10;;;;;;;4.30;3.90;;;;;;;;;;4990703;28;20443;-52
2021/07/23 09:53:37;;;;;;;5.90;5.40;;;;;;;;;;4991089;28;20404;-51
2021/07/23 09:56:05;;;;;;;4.47;3.93;;;;;;;;;;4990730;28;20887;-52
2021/07/23 09:58:35;;;;;;;99.27;10.13;;;;;;;;;;4974436;28;20535;-52
2021/07/23 10:01:06;;;;;;;6.93;5.83;;;;;;;;;;4956561;28;20512;-53
2021/07/23 10:03:32;;;;;;;9.13;6.80;;;;;;;;;;4989738;28;20400;-51
2021/07/23 10:06:08;;;;;;;6.23;5.63;;;;;;;;;;4990355;28;20451;-52
2021/07/23 10:08:35;;;;;;;5.80;5.30;;;;;;;;;;4990608;28;20913;-50
2021/07/23 10:11:02;;;;;;;6.20;5.60;;;;;;;;;;4972790;28;20926;-51
2021/07/23 10:13:29;;;;;;;8.40;6.10;;;;;;;;;;4990184;28;20400;-51
2021/07/23 10:15:56;;;;;;;6.00;5.50;;;;;;;;;;4990458;28;20842;-51
2021/07/23 10:18:23;;;;;;;11.33;7.17;;;;;;;;;;4973031;28;20420;-50
2021/07/23 10:20:49;;;;;;;6.50;4.20;;;;;;;;;;4990771;28;20470;-52
2021/07/23 10:23:17;;;;;;;11.13;5.90;;;;;;;;;;5009972;28;20403;-53
2021/07/23 10:25:43;;;;;;;7.20;5.60;;;;;;;;;;5010388;28;20459;-53
2021/07/23 10:28:10;;;;;;;9.20;6.13;;;;;;;;;;5009036;28;20498;-53
2021/07/23 10:30:36;;;;;;;10.50;7.00;;;;;;;;;;5010060;28;20427;-53
2021/07/23 10:33:04;;;;;;;8.07;6.70;;;;;;;;;;5010109;28;20403;-52
2021/07/23 10:35:31;;;;;;;11.43;8.07;;;;;;;;;;5010254;28;20410;-52
2021/07/23 10:37:57;;;;;;;9.40;7.53;;;;;;;;;;5011866;28;20411;-52
2021/07/23 10:40:33;;;;;;;11.33;7.60;;;;;;;;;;5013526;28;20498;-51
2021/07/23 10:42:59;;;;;;;7.50;6.63;;;;;;;;;;5013367;28;20414;-52
2021/07/23 10:45:43;;;;;;;9.77;7.13;;;;;;;;;;5013537;28;20485;-52
2021/07/23 10:48:09;;;;;;;8.10;7.27;;;;;;;;;;5013477;28;20407;-52
2021/07/23 10:50:38;;;;;;;10.83;7.63;;;;;;;;;;5013220;28;20955;-53
2021/07/23 10:53:23;;;;;;;6.70;6.00;;;;;;;;;;5013424;28;20468;-52
2021/07/23 10:55:49;;;;;;;6.23;5.63;;;;;;;;;;5013510;28;20442;-52
2021/07/23 10:58:15;;;;;;;11.57;5.63;;;;;;;;;;5013404;28;21102;-52
2021/07/23 11:00:45;;;;;;;9.27;6.30;;;;;;;;;;5013168;28;20423;-53
2021/07/23 11:03:31;;;;;;;6.87;5.27;;;;;;;;;;5013368;28;20406;-51
2021/07/23 11:05:57;;;;;;;8.73;7.93;;;;;;;;;;5012957;28;20458;-52
2021/07/23 11:08:23;;;;;;;8.07;5.57;;;;;;;;;;5013302;28;20453;-52
2021/07/23 11:10:53;;;;;;;6.43;5.93;;;;;;;;;;5012900;28;20893;-53
2021/07/23 11:13:19;;;;;;;7.87;7.07;;;;;;;;;;5013170;28;20430;-53
2021/07/23 11:15:45;;;;;;;7.67;6.97;;;;;;;;;;5013039;28;20399;-52
2021/07/23 11:18:15;;;;;;;8.97;6.70;;;;;;;;;;5013131;28;20747;-54
2021/07/23 11:20:42;;;;;;;7.93;4.80;;;;;;;;;;5012943;28;20195;-54
2021/07/23 11:23:10;;;;;;;9.10;6.37;;;;;;;;;;5012973;28;20497;-52
2021/07/23 11:25:38;;;;;;;11.90;7.20;;;;;;;;;;5012850;28;20461;-54
2021/07/23 11:28:06;;;;;;;8.63;7.40;;;;;;;;;;5012922;28;20411;-52
2021/07/23 11:30:36;;;;;;;5.17;4.77;;;;;;;;;;5012486;28;20435;-53
2021/07/23 11:33:11;;;;;;;10.53;7.53;;;;;;;;;;5012810;28;20399;-52
2021/07/23 11:35:41;;;;;;;7.23;6.47;;;;;;;;;;5012755;28;20839;-53
2021/07/23 11:38:11;;;;;;;9.80;6.50;;;;;;;;;;5012876;28;20407;-53
2021/07/23 11:40:37;;;;;;;10.13;7.00;;;;;;;;;;5012382;28;20418;-53
2021/07/23 11:43:04;;;;;;;7.73;6.93;;;;;;;;;;5012512;28;20742;-52
2021/07/23 11:45:31;;;;;;;5.87;4.90;;;;;;;;;;5012779;28;20461;-53
2021/07/23 11:47:57;;;;;;;8.00;7.20;;;;;;;;;;5012733;28;20399;-52
2021/07/23 11:50:25;;;;;;;8.67;7.10;;;;;;;;;;5012279;28;20443;-52
2021/07/23 11:52:59;;;;;;;12.67;6.63;;;;;;;;;;5012513;28;20406;-51
2021/07/23 11:55:25;;;;;;;6.90;6.40;;;;;;;;;;5012443;28;21150;-53
2021/07/23 11:57:51;;;;;;;9.30;6.17;;;;;;;;;;5012334;28;20433;-53
2021/07/23 12:00:19;;;;;;;9.10;7.33;;;;;;;;;;5012122;28;21160;-53
2021/07/23 12:02:45;;;;;;;8.80;6.73;;;;;;;;;;5012142;28;20215;-52
2021/07/23 12:05:12;;;;;;;10.77;6.50;;;;;;;;;;5012102;28;20457;-52
2021/07/23 12:07:39;;;;;;;5.60;4.73;;;;;;;;;;5012139;28;20753;-53
2021/07/23 12:10:09;;;;;;;7.33;6.63;;;;;;;;;;5012036;28;20423;-53
2021/07/23 12:12:36;;;;;;;6.60;6.00;;;;;;;;;;5011565;28;20411;-53
2021/07/23 12:15:05;;;;;;;7.87;6.60;;;;;;;;;;5012006;28;20434;-53
2021/07/23 12:17:32;;;;;;;6.13;5.57;;;;;;;;;;5011728;28;20889;-52
2021/07/23 12:19:58;;;;;;;9.70;7.40;;;;;;;;;;5011857;28;20686;-52
2021/07/23 12:22:24;;;;;;;5.27;4.87;;;;;;;;;;5011498;28;20403;-52
2021/07/23 12:24:50;;;;;;;5.00;4.57;;;;;;;;;;5011624;28;20459;-52
2021/07/23 12:27:17;;;;;;;6.00;4.90;;;;;;;;;;5011527;28;20450;-53
2021/07/23 12:29:43;;;;;;;5.97;5.30;;;;;;;;;;5011780;28;20407;-51
2021/07/23 12:32:15;;;;;;;6.70;5.77;;;;;;;;;;5011325;28;20398;-53
2021/07/23 12:34:42;;;;;;;8.70;6.87;;;;;;;;;;5011683;28;20503;-54
2021/07/23 12:37:16;;;;;;;8.03;7.20;;;;;;;;;;5011550;28;20399;-53
2021/07/23 12:39:52;;;;;;;10.10;7.10;;;;;;;;;;4994067;28;20504;-53
2021/07/23 12:42:21;;;;;;;8.57;6.90;;;;;;;;;;4991938;28;20969;-50
2021/07/23 12:44:47;;;;;;;8.90;5.87;;;;;;;;;;4991850;28;20460;-50
2021/07/23 12:47:20;;;;;;;7.37;6.70;;;;;;;;;;4991619;28;20412;-52
2021/07/23 12:49:46;;;;;;;5.67;5.13;;;;;;;;;;4991521;28;20412;-50
2021/07/23 12:52:12;;;;;;;7.70;5.90;;;;;;;;;;4991378;28;20761;-52
2021/07/23 12:54:45;;;;;;;7.00;6.40;;;;;;;;;;4991556;28;20408;-53
2021/07/23 12:57:12;;;;;;;6.17;5.40;;;;;;;;;;4991773;28;20392;-49
2021/07/23 12:59:38;;;;;;;6.07;5.57;;;;;;;;;;4991657;28;20482;-50
2021/07/23 13:02:04;;;;;;;6.00;5.30;;;;;;;;;;4991019;28;20547;-52
2021/07/23 13:04:30;;;;;;;6.70;5.03;;;;;;;;;;4991911;28;20243;-53
2021/07/23 13:06:56;;;;;;;6.20;5.70;;;;;;;;;;4991417;28;20399;-50
2021/07/23 13:09:22;;;;;;;6.67;6.07;;;;;;;;;;4991472;28;20408;-50
2021/07/23 13:11:49;;;;;;;6.47;5.87;;;;;;;;;;4991175;28;20420;-50
2021/07/23 13:14:16;;;;;;;5.10;4.60;;;;;;;;;;4991415;28;20408;-50
2021/07/23 13:16:42;;;;;;;6.80;5.93;;;;;;;;;;4991324;28;20884;-50
2021/07/23 13:19:08;;;;;;;7.60;5.07;;;;;;;;;;4991109;28;20736;-50
2021/07/23 13:21:34;;;;;;;5.30;4.80;;;;;;;;;;4991126;28;20925;-50
2021/07/23 13:24:02;;;;;;;7.07;5.57;;;;;;;;;;4991323;28;20408;-50
2021/07/23 13:26:28;;;;;;;6.73;5.60;;;;;;;;;;4991389;28;20550;-50
2021/07/23 13:28:55;;;;;;;6.37;5.87;;;;;;;;;;4991295;28;20412;-50
2021/07/23 13:31:21;;;;;;;10.53;6.77;;;;;;;;;;4991130;28;20876;-53
2021/07/23 13:33:50;;;;;;;8.37;7.27;;;;;;;;;;4991213;28;20423;-50
2021/07/23 13:36:20;;;;;;;7.30;6.60;;;;;;;;;;4991449;28;20491;-50
2021/07/23 13:38:52;;;;;;;8.27;6.80;;;;;;;;;;4991215;28;20407;-50
2021/07/23 13:41:18;;;;;;;7.70;6.07;;;;;;;;;;4991029;28;20428;-50
2021/07/23 13:43:44;;;;;;;7.13;6.47;;;;;;;;;;4991622;28;20408;-50
2021/07/23 13:46:10;;;;;;;11.20;6.63;;;;;;;;;;4991062;28;20817;-50
2021/07/23 13:48:37;;;;;;;7.87;6.03;;;;;;;;;;4991080;28;20478;-50
2021/07/23 13:51:03;;;;;;;5.57;5.07;;;;;;;;;;4990860;28;20448;-50
2021/07/23 13:53:29;;;;;;;6.67;5.27;;;;;;;;;;4990823;28;20463;-50
2021/07/23 13:55:55;;;;;;;7.97;6.60;;;;;;;;;;4991058;28;20781;-50
2021/07/23 13:58:21;;;;;;;6.50;5.90;;;;;;;;;;4991358;28;20404;-50
2021/07/23 14:00:47;;;;;;;6.30;5.60;;;;;;;;;;4990576;28;20477;-50
2021/07/23 14:03:13;;;;;;;6.00;5.30;;;;;;;;;;4990701;28;20419;-50
2021/07/23 14:05:38;;;;;;;6.33;5.73;;;;;;;;;;4990912;28;20487;-51
2021/07/23 14:08:05;;;;;;;9.50;6.00;;;;;;;;;;4990827;28;20404;-52
2021/07/23 14:10:31;;;;;;;7.40;6.30;;;;;;;;;;4990674;28;20193;-50
2021/07/23 14:12:57;;;;;;;6.80;6.10;;;;;;;;;;4992597;28;20403;-52
2021/07/23 14:15:23;;;;;;;8.07;5.20;;;;;;;;;;4994397;28;20200;-49
2021/07/23 14:17:49;;;;;;;8.57;6.63;;;;;;;;;;4994596;28;20517;-50
2021/07/23 14:20:15;;;;;;;6.47;5.27;;;;;;;;;;4994301;28;20485;-51
2021/07/23 14:22:41;;;;;;;9.73;5.60;;;;;;;;;;4994388;28;20772;-53
2021/07/23 14:25:07;;;;;;;7.53;5.70;;;;;;;;;;4994586;28;20459;-50
2021/07/23 14:27:33;;;;;;;6.70;6.00;;;;;;;;;;4994375;28;20169;-53
2021/07/23 14:29:59;;;;;;;7.17;5.30;;;;;;;;;;4994491;28;20797;-50
2021/07/23 14:32:25;;;;;;;5.77;5.17;;;;;;;;;;4994142;28;20469;-49